Time;durP1;ratioP1;P1;durP2;ratioP2;P2;SDS_P1;SDS_P2;PMS_P1;PMS_P2;Temp;Humidity;BMP_temperature;BMP_pressure;BME280_temperature;BME280_humidity;BME280_pressure;Samples;Min_cycle;Max_cycle;Signal;HPM_P1;HPM_P2
2023/06/03 00:01:50;;;;;;;2.97;2.45;;;;;;;17.37;97.85;64795.81;5051527;28;20188;-57
2023/06/03 00:04:17;;;;;;;4.28;2.53;;;;;;;17.30;99.65;64787.56;5051373;28;20218;-55
2023/06/03 00:07:01;;;;;;;3.30;2.13;;;;;;;17.36;99.76;64797.28;5033447;28;20193;-54
2023/06/03 00:09:26;;;;;;;4.68;2.72;;;;;;;17.25;100.00;64785.16;5051558;28;20213;-56
2023/06/03 00:11:52;;;;;;;3.53;2.50;;;;;;;17.35;100.00;64793.63;5051259;28;20587;-56
2023/06/03 00:14:18;;;;;;;8.70;3.40;;;;;;;17.20;100.00;64779.66;5051688;28;20279;-57
2023/06/03 00:16:45;;;;;;;4.05;2.50;;;;;;;17.24;100.00;64778.41;5051177;28;20194;-59
2023/06/03 00:19:14;;;;;;;2.97;2.53;;;;;;;17.29;100.00;64786.47;5051336;28;20241;-58
2023/06/03 00:21:49;;;;;;;3.15;2.80;;;;;;;17.23;100.00;64782.94;5051311;28;20212;-58
2023/06/03 00:24:22;;;;;;;4.32;3.00;;;;;;;17.07;100.00;64762.25;5051268;28;20260;-58
2023/06/03 00:26:52;;;;;;;4.63;2.67;;;;;;;17.13;100.00;64768.84;5051109;28;20284;-58
2023/06/03 00:29:20;;;;;;;7.25;3.30;;;;;;;17.32;100.00;64790.31;5051320;28;20229;-58
2023/06/03 00:31:46;;;;;;;3.13;2.72;;;;;;;17.44;100.00;64803.00;5051112;28;20201;-58
2023/06/03 00:34:12;;;;;;;5.38;3.42;;;;;;;17.38;100.00;64796.94;5051240;28;20219;-57
2023/06/03 00:36:37;;;;;;;4.32;2.78;;;;;;;17.32;100.00;64789.78;5050906;28;20711;-57
2023/06/03 00:39:03;;;;;;;3.97;3.00;;;;;;;17.25;100.00;64782.59;5051326;28;20209;-56
2023/06/03 00:41:28;;;;;;;3.30;2.90;;;;;;;17.24;100.00;64778.97;5050967;28;20580;-55
2023/06/03 00:43:53;;;;;;;4.13;3.08;;;;;;;17.33;100.00;64791.41;5050950;28;20691;-55
2023/06/03 00:46:20;;;;;;;5.85;2.92;;;;;;;17.51;100.00;64811.28;5050970;28;20205;-55
2023/06/03 00:48:46;;;;;;;4.32;3.22;;;;;;;17.53;100.00;64812.94;5050682;28;20217;-56
2023/06/03 00:51:13;;;;;;;3.80;3.10;;;;;;;17.40;100.00;64799.16;5050870;28;20209;-55
2023/06/03 00:53:38;;;;;;;3.63;3.30;;;;;;;17.32;100.00;64789.78;5050982;28;20217;-55
2023/06/03 00:56:04;;;;;;;6.32;3.40;;;;;;;17.09;100.00;64767.00;5050791;28;20300;-55
2023/06/03 00:58:30;;;;;;;4.40;3.25;;;;;;;17.00;100.00;64757.06;5050960;28;20214;-59
2023/06/03 01:00:56;;;;;;;4.35;3.33;;;;;;;16.83;100.00;64733.25;5050647;28;20201;-56
2023/06/03 01:03:21;;;;;;;4.78;3.53;;;;;;;16.98;100.00;64750.31;5053676;28;20217;-58
2023/06/03 01:06:01;;;;;;;3.85;3.33;;;;;;;17.04;100.00;64761.47;5054163;28;20780;-56
2023/06/03 01:08:50;;;;;;;3.67;3.13;;;;;;;17.08;100.00;64765.88;5053955;28;20217;-56
2023/06/03 01:11:25;;;;;;;9.32;3.35;;;;;;;16.98;100.00;64752.88;5054286;28;20205;-56
2023/06/03 01:14:00;;;;;;;5.05;3.28;;;;;;;16.99;100.00;64755.97;5053969;28;20698;-58
2023/06/03 01:16:26;;;;;;;5.57;3.30;;;;;;;17.04;100.00;64759.47;5054254;28;20193;-55
2023/06/03 01:18:53;;;;;;;3.75;3.25;;;;;;;17.12;100.00;64770.84;5054286;28;20209;-56
2023/06/03 01:21:19;;;;;;;4.97;3.13;;;;;;;17.16;100.00;64772.69;5054036;28;20233;-59
2023/06/03 01:23:45;;;;;;;4.75;2.95;;;;;;;17.16;100.00;64772.16;5054118;28;20236;-58
2023/06/03 01:26:11;;;;;;;4.15;3.17;;;;;;;17.06;100.00;64764.22;5053893;28;20181;-57
2023/06/03 01:28:38;;;;;;;4.00;3.20;;;;;;;17.01;100.00;64755.63;5054035;28;20266;-60
2023/06/03 01:31:04;;;;;;;5.90;3.13;;;;;;;17.05;100.00;64760.56;5053706;28;20209;-58
2023/06/03 01:33:32;;;;;;;4.40;3.13;;;;;;;16.98;100.00;64755.41;5053618;28;20213;-58
2023/06/03 01:36:00;;;;;;;3.72;3.20;;;;;;;16.96;100.00;64750.13;5053426;28;20198;-59
2023/06/03 01:38:26;;;;;;;5.30;3.50;;;;;;;16.99;100.00;64753.44;5052332;28;20213;-55
2023/06/03 01:40:52;;;;;;;5.70;3.53;;;;;;;16.98;100.00;64752.31;5053731;28;20197;-56
2023/06/03 01:43:18;;;;;;;4.60;3.10;;;;;;;16.98;100.00;64752.88;5053796;28;20221;-58
2023/06/03 01:45:45;;;;;;;3.88;3.47;;;;;;;16.95;100.00;64749.03;5053694;28;20695;-59
2023/06/03 01:48:11;;;;;;;4.55;3.30;;;;;;;17.01;100.00;64753.09;5053666;28;20233;-57
2023/06/03 01:50:43;;;;;;;4.65;3.85;;;;;;;16.65;100.00;64717.06;5053481;28;20209;-58
2023/06/03 01:53:09;;;;;;;5.22;3.97;;;;;;;16.56;100.00;64711.72;5053646;28;20201;-58
2023/06/03 01:55:35;;;;;;;4.35;3.38;;;;;;;16.56;100.00;64706.63;5053474;28;20284;-57
2023/06/03 01:58:01;;;;;;;5.05;3.28;;;;;;;16.53;100.00;64706.41;5053482;28;20749;-58
2023/06/03 02:00:27;;;;;;;6.10;3.20;;;;;;;16.66;100.00;64715.09;5053530;28;20201;-57
2023/06/03 02:02:52;;;;;;;4.43;3.78;;;;;;;16.58;100.00;64709.34;5053523;28;20698;-57
2023/06/03 02:05:18;;;;;;;6.38;4.18;;;;;;;16.52;100.00;64702.75;5053308;28;20636;-56
2023/06/03 02:07:44;;;;;;;4.30;3.67;;;;;;;16.68;100.00;64717.81;5053430;28;20192;-57
2023/06/03 02:10:09;;;;;;;6.05;3.42;;;;;;;16.64;100.00;64718.50;5053072;28;20745;-58
2023/06/03 02:12:34;;;;;;;4.43;3.90;;;;;;;16.57;100.00;64710.81;5053095;28;20243;-57
2023/06/03 02:15:00;;;;;;;5.03;3.83;;;;;;;16.62;100.00;64711.22;5051920;28;20201;-58
2023/06/03 02:17:33;;;;;;;5.05;4.07;;;;;;;16.56;100.00;64707.16;5053139;28;20198;-58
2023/06/03 02:19:58;;;;;;;4.38;3.30;;;;;;;16.64;100.00;64718.50;5053001;28;20279;-58
2023/06/03 02:22:24;;;;;;;5.60;3.80;;;;;;;16.59;100.00;64710.47;5053036;28;20612;-56
2023/06/03 02:24:50;;;;;;;7.00;4.30;;;;;;;16.51;100.00;64701.66;5053299;28;20225;-56
2023/06/03 02:27:19;;;;;;;7.82;4.47;;;;;;;16.57;100.00;64705.72;5052989;28;20260;-54
2023/06/03 02:29:50;;;;;;;7.30;3.97;;;;;;;16.65;100.00;64714.53;5053098;28;20236;-55
2023/06/03 02:32:16;;;;;;;6.78;4.40;;;;;;;16.47;100.00;64694.13;5053067;28;20197;-56
2023/06/03 02:34:43;;;;;;;6.65;3.75;;;;;;;16.28;100.00;64675.78;5052729;28;20263;-57
2023/06/03 02:37:10;;;;;;;8.30;4.63;;;;;;;16.30;100.00;64680.53;5051973;28;20197;-55
2023/06/03 02:39:36;;;;;;;5.13;4.15;;;;;;;16.47;100.00;64699.78;5051348;28;20221;-56
2023/06/03 02:42:01;;;;;;;6.65;4.03;;;;;;;16.64;100.00;64712.88;5052760;28;20205;-56
2023/06/03 02:44:27;;;;;;;8.40;4.65;;;;;;;16.57;100.00;64708.28;5051465;28;20240;-55
2023/06/03 02:46:52;;;;;;;6.25;3.72;;;;;;;16.40;100.00;64692.06;5052322;28;20243;-55
2023/06/03 02:49:17;;;;;;;5.05;4.10;;;;;;;16.43;100.00;64692.28;5052701;28;20561;-55
2023/06/03 02:51:43;;;;;;;6.57;3.92;;;;;;;16.47;100.00;64697.25;5052522;28;20224;-56
2023/06/03 02:54:08;;;;;;;4.00;3.60;;;;;;;16.37;100.00;64683.13;5052761;28;20224;-56
2023/06/03 02:56:34;;;;;;;4.40;3.88;;;;;;;16.35;100.00;64684.03;5052645;28;20224;-56
2023/06/03 02:59:00;;;;;;;4.88;3.47;;;;;;;16.27;100.00;64675.22;5052697;28;20214;-57
2023/06/03 03:01:27;;;;;;;4.50;3.75;;;;;;;16.25;100.00;64675.00;5052367;28;20197;-60
2023/06/03 03:03:53;;;;;;;7.68;3.90;;;;;;;16.26;100.00;64676.66;5052329;28;20240;-59
2023/06/03 03:06:21;;;;;;;5.30;4.18;;;;;;;16.24;100.00;64671.38;5052380;28;20178;-59
2023/06/03 03:08:47;;;;;;;6.15;3.80;;;;;;;16.31;100.00;64681.63;5052645;28;20225;-56
2023/06/03 03:11:14;;;;;;;5.32;3.80;;;;;;;16.26;100.00;64673.56;5052308;28;20268;-56
2023/06/03 03:13:41;;;;;;;5.47;4.10;;;;;;;16.32;100.00;64680.72;5052087;28;20213;-55
2023/06/03 03:16:07;;;;;;;5.47;3.95;;;;;;;16.22;100.00;64672.25;5052157;28;20232;-56
2023/06/03 03:18:32;;;;;;;6.80;4.05;;;;;;;16.15;100.00;64659.47;5052144;28;20687;-55
2023/06/03 03:20:58;;;;;;;7.45;4.25;;;;;;;16.07;100.00;64652.66;5051998;28;20196;-55
2023/06/03 03:23:24;;;;;;;4.20;3.75;;;;;;;16.08;100.00;64653.75;5052271;28;20218;-55
2023/06/03 03:25:49;;;;;;;5.18;4.38;;;;;;;16.12;100.00;64661.25;5051854;28;20220;-56
2023/06/03 03:28:15;;;;;;;4.43;4.03;;;;;;;16.01;100.00;64649.16;5051802;28;20622;-55
2023/06/03 03:30:40;;;;;;;5.55;4.10;;;;;;;16.01;100.00;64646.06;5033946;28;20658;-55
2023/06/03 03:33:06;;;;;;;7.55;4.35;;;;;;;15.95;100.00;64640.56;5052004;28;20644;-55
2023/06/03 03:35:31;;;;;;;5.63;4.45;;;;;;;15.90;100.00;64637.59;5051858;28;20198;-54
2023/06/03 03:38:03;;;;;;;6.68;5.07;;;;;;;16.13;100.00;64659.81;5033932;28;20577;-55
2023/06/03 03:40:35;;;;;;;5.95;4.68;;;;;;;16.15;100.00;64662.00;5051785;28;20299;-56
2023/06/03 03:43:02;;;;;;;4.38;3.97;;;;;;;16.26;100.00;64671.56;5051783;28;20770;-55
2023/06/03 03:45:37;;;;;;;7.55;4.70;;;;;;;16.30;100.00;64678.50;5051731;28;20193;-57
2023/06/03 03:48:05;;;;;;;6.55;4.25;;;;;;;16.34;100.00;64685.47;5051732;28;20662;-58
2023/06/03 03:50:39;;;;;;;4.93;3.65;;;;;;;16.17;100.00;64666.75;5051531;28;20232;-57
2023/06/03 03:53:07;;;;;;;5.57;3.85;;;;;;;16.20;100.00;64667.50;5051702;28;20578;-59
2023/06/03 03:55:39;;;;;;;6.25;4.13;;;;;;;16.23;100.00;64670.81;5051531;28;20223;-56
2023/06/03 03:58:14;;;;;;;9.25;5.68;;;;;;;16.33;100.00;64684.38;5051565;28;20659;-55
2023/06/03 04:00:41;;;;;;;7.55;4.35;;;;;;;16.37;100.00;64685.69;5051506;28;20291;-55
2023/06/03 04:03:09;;;;;;;6.20;4.70;;;;;;;16.21;100.00;64666.06;5051555;28;20209;-54
2023/06/03 04:05:36;;;;;;;6.07;4.50;;;;;;;16.21;100.00;64671.16;5033662;28;20198;-55
2023/06/03 04:08:03;;;;;;;4.65;4.15;;;;;;;16.15;100.00;64659.47;5051266;28;20726;-57
2023/06/03 04:10:28;;;;;;;5.90;4.32;;;;;;;16.23;100.00;64670.25;5051326;28;20216;-59
2023/06/03 04:12:54;;;;;;;7.32;4.82;;;;;;;16.28;100.00;64678.84;5051192;28;20197;-58
2023/06/03 04:15:24;;;;;;;6.78;4.63;;;;;;;16.20;100.00;64664.44;5033308;28;20698;-58
2023/06/03 04:17:50;;;;;;;8.10;4.63;;;;;;;16.19;100.00;64666.41;5051099;28;20688;-55
2023/06/03 04:20:41;;;;;;;4.90;4.05;;;;;;;16.30;100.00;64681.06;5051128;28;20276;-56
2023/06/03 04:23:13;;;;;;;6.38;4.25;;;;;;;16.56;100.00;64709.69;5051131;28;20707;-56
2023/06/03 04:25:40;;;;;;;5.97;4.38;;;;;;;16.66;100.00;64718.16;5051143;28;20224;-57
2023/06/03 04:28:06;;;;;;;6.47;4.20;;;;;;;16.61;100.00;64709.56;5051037;28;20200;-58
2023/06/03 04:30:31;;;;;;;7.47;4.38;;;;;;;16.68;100.00;64720.38;5050937;28;20761;-58
2023/06/03 04:32:57;;;;;;;7.75;4.68;;;;;;;16.66;100.00;64718.16;5050939;28;20251;-58
2023/06/03 04:35:23;;;;;;;5.90;4.78;;;;;;;16.61;100.00;64712.13;5051200;28;20200;-59
2023/06/03 04:37:50;;;;;;;6.85;4.70;;;;;;;16.54;100.00;64706.97;5032126;28;20197;-58
2023/06/03 04:40:15;;;;;;;6.38;4.15;;;;;;;16.50;100.00;64700.56;5051057;28;20311;-58
2023/06/03 04:42:41;;;;;;;5.85;3.97;;;;;;;16.66;100.00;64720.72;5050892;28;20552;-56
2023/06/03 04:45:07;;;;;;;4.38;3.80;;;;;;;16.63;100.00;64714.88;5050738;28;20287;-58
2023/06/03 04:47:34;;;;;;;8.48;4.30;;;;;;;16.74;100.00;64729.00;5050763;28;20193;-58
2023/06/03 04:50:01;;;;;;;5.05;4.22;;;;;;;16.69;100.00;64721.47;5050671;28;20228;-59
2023/06/03 04:52:27;;;;;;;4.93;4.28;;;;;;;16.71;100.00;64723.13;5050752;28;20181;-57
2023/06/03 04:54:53;;;;;;;4.38;3.97;;;;;;;16.99;100.00;64751.41;5050581;28;20225;-57
2023/06/03 04:57:18;;;;;;;5.78;4.63;;;;;;;16.97;100.00;64751.22;5050713;28;20339;-57
2023/06/03 04:59:43;;;;;;;5.60;4.63;;;;;;;17.08;100.00;64763.34;5050642;28;20560;-58
2023/06/03 05:02:10;;;;;;;8.88;4.45;;;;;;;17.19;100.00;64775.47;5050575;28;20639;-58
2023/06/03 05:04:37;;;;;;;7.30;4.55;;;;;;;16.96;100.00;64747.56;5050540;28;20209;-66
2023/06/03 05:07:02;;;;;;;4.80;4.28;;;;;;;17.35;100.00;64796.16;5050787;28;20281;-55
2023/06/03 05:09:28;;;;;;;4.53;4.13;;;;;;;17.52;100.00;64812.38;5050803;28;20816;-55
2023/06/03 05:11:55;;;;;;;7.75;4.43;;;;;;;17.44;100.00;64806.09;5050875;28;20565;-55
2023/06/03 05:14:22;;;;;;;5.32;4.28;;;;;;;17.38;100.00;64799.50;5050476;28;20758;-55
2023/06/03 05:16:47;;;;;;;4.82;4.13;;;;;;;17.35;100.00;64791.06;5050363;28;20605;-55
2023/06/03 05:19:13;;;;;;;5.43;4.50;;;;;;;17.56;100.00;64816.25;5050325;28;20213;-56
2023/06/03 05:21:38;;;;;;;6.53;4.00;;;;;;;17.72;100.00;64836.41;5050549;28;20185;-58
2023/06/03 05:24:04;;;;;;;8.88;4.93;;;;;;;17.61;100.00;64819.22;5050787;28;20711;-59
2023/06/03 05:26:29;;;;;;;8.23;4.13;;;;;;;17.70;100.00;64831.66;5050377;28;20229;-55
2023/06/03 05:28:55;;;;;;;6.32;4.57;;;;;;;17.73;100.00;64837.53;5050626;28;20236;-55
2023/06/03 05:31:20;;;;;;;8.63;4.43;;;;;;;17.91;100.00;64854.81;5050218;28;20621;-60
2023/06/03 05:33:45;;;;;;;6.97;4.47;;;;;;;18.07;100.00;64869.38;5050390;28;20323;-58
2023/06/03 05:36:11;;;;;;;8.25;5.30;;;;;;;17.77;100.00;64839.41;5050227;28;20203;-58
2023/06/03 05:38:36;;;;;;;5.65;4.65;;;;;;;18.10;100.00;64875.75;5050338;28;20228;-58
2023/06/03 05:41:03;;;;;;;5.60;4.00;;;;;;;18.15;100.00;64883.84;5050201;28;20721;-57
2023/06/03 05:43:29;;;;;;;5.75;4.15;;;;;;;18.29;100.00;64896.16;5050189;28;20220;-57
2023/06/03 05:45:55;;;;;;;7.68;5.10;;;;;;;18.43;100.00;64911.63;5050215;28;20197;-57
2023/06/03 05:48:21;;;;;;;7.25;4.57;;;;;;;18.41;100.00;64909.41;5051242;28;20759;-56
2023/06/03 05:50:51;;;;;;;6.47;4.30;;;;;;;18.33;100.00;64901.13;5053727;28;20225;-55
2023/06/03 05:53:23;;;;;;;6.18;4.28;;;;;;;18.30;100.00;64895.28;5053662;28;20205;-56
2023/06/03 05:55:49;;;;;;;7.88;4.40;;;;;;;18.47;100.00;64915.50;5053526;28;20302;-56
2023/06/03 05:58:19;;;;;;;5.97;4.80;;;;;;;18.44;100.00;64910.19;5053514;28;20719;-56
2023/06/03 06:00:45;;;;;;;6.47;4.47;;;;;;;18.40;100.00;64908.31;5053312;28;20190;-56
2023/06/03 06:03:12;;;;;;;6.03;4.40;;;;;;;18.35;100.00;64903.34;5035567;28;20263;-56
2023/06/03 06:05:37;;;;;;;6.43;4.20;;;;;;;18.27;100.00;64897.06;5053407;28;20194;-56
2023/06/03 06:08:02;;;;;;;5.13;4.32;;;;;;;18.39;99.43;64907.75;5035441;28;20270;-57
2023/06/03 06:10:28;;;;;;;10.80;5.47;;;;;;;18.49;100.00;64917.69;5053035;28;20262;-58
2023/06/03 06:12:53;;;;;;;8.15;4.57;;;;;;;18.57;100.00;64923.97;5053288;28;20669;-58
2023/06/03 06:15:19;;;;;;;6.22;4.00;;;;;;;18.73;100.00;64942.19;5053248;28;20180;-57
2023/06/03 06:17:44;;;;;;;7.97;4.30;;;;;;;18.52;100.00;64919.03;5053104;28;20217;-60
2023/06/03 06:20:11;;;;;;;6.57;4.25;;;;;;;18.60;100.00;64929.84;5035195;28;20240;-57
2023/06/03 06:22:37;;;;;;;7.32;4.13;;;;;;;18.62;99.23;64932.03;5052987;28;20666;-55
2023/06/03 06:25:03;;;;;;;9.00;4.55;;;;;;;18.66;97.17;64933.91;5052882;28;20283;-55
2023/06/03 06:27:30;;;;;;;6.95;3.70;;;;;;;18.43;99.14;64914.19;5053058;28;20200;-57
2023/06/03 06:29:55;;;;;;;9.02;4.05;;;;;;;18.66;98.60;64936.47;5052698;28;20210;-58
2023/06/03 06:32:23;;;;;;;7.82;4.13;;;;;;;18.76;98.04;64947.50;5053019;28;20182;-58
2023/06/03 06:34:49;;;;;;;9.43;3.85;;;;;;;18.76;98.27;64944.94;5053103;28;20280;-56
2023/06/03 06:37:18;;;;;;;6.82;4.70;;;;;;;18.95;96.54;64968.44;5052980;28;20205;-56
2023/06/03 06:39:51;;;;;;;5.88;3.88;;;;;;;18.84;97.08;64953.75;5052894;28;20220;-64
2023/06/03 06:42:31;;;;;;;7.10;4.15;;;;;;;18.83;98.82;64952.66;5052687;28;20304;-55
2023/06/03 06:44:56;;;;;;;6.57;4.22;;;;;;;18.99;97.04;64970.84;5052576;28;20217;-56
2023/06/03 06:47:27;;;;;;;5.65;4.10;;;;;;;19.18;97.95;64991.84;5052467;28;20684;-55
2023/06/03 06:49:55;;;;;;;14.73;4.60;;;;;;;19.26;95.71;65000.13;5052438;28;20230;-56
2023/06/03 06:52:22;;;;;;;4.65;3.92;;;;;;;18.97;99.35;64968.66;5052363;28;20305;-56
2023/06/03 06:54:48;;;;;;;7.82;5.07;;;;;;;19.15;97.82;64987.97;5052734;28;20247;-56
2023/06/03 06:57:21;;;;;;;8.90;4.47;;;;;;;19.49;93.02;65027.53;5052708;28;20268;-56
2023/06/03 06:59:48;;;;;;;9.20;3.97;;;;;;;19.49;91.53;65025.53;5052179;28;20217;-55
2023/06/03 07:02:14;;;;;;;5.25;4.07;;;;;;;19.42;92.74;65017.78;5052448;28;20668;-56
2023/06/03 07:04:39;;;;;;;6.03;4.10;;;;;;;19.60;91.24;65037.66;5052561;28;20712;-59
2023/06/03 07:07:05;;;;;;;6.97;4.20;;;;;;;19.66;89.36;65046.84;5052395;28;20264;-60
2023/06/03 07:09:30;;;;;;;7.50;4.13;;;;;;;19.60;88.68;65037.09;5052264;28;20217;-60
2023/06/03 07:11:56;;;;;;;7.78;4.13;;;;;;;19.54;88.71;65030.50;5052190;28;20272;-59
2023/06/03 07:14:22;;;;;;;5.80;4.13;;;;;;;19.69;90.28;65050.19;5052215;28;20210;-58
2023/06/03 07:16:54;;;;;;;5.90;4.45;;;;;;;19.82;93.99;65061.41;5052401;28;20653;-59
2023/06/03 07:19:20;;;;;;;7.72;4.75;;;;;;;19.85;88.76;65070.41;5051327;28;20221;-61
2023/06/03 07:21:45;;;;;;;8.82;3.97;;;;;;;19.84;91.65;65066.72;5053153;28;20661;-59
2023/06/03 07:24:11;;;;;;;6.63;4.20;;;;;;;19.86;90.65;65068.94;5052335;28;20213;-57
2023/06/03 07:26:39;;;;;;;6.28;4.18;;;;;;;20.08;89.68;65092.69;5052306;28;20193;-60
2023/06/03 07:29:05;;;;;;;5.95;4.32;;;;;;;20.19;86.53;65101.72;5051923;28;20660;-57
2023/06/03 07:31:35;;;;;;;6.10;4.15;;;;;;;20.25;83.21;65110.94;5052084;28;20276;-59
2023/06/03 07:34:01;;;;;;;9.38;4.20;;;;;;;19.79;85.41;65060.66;5052079;28;20236;-63
2023/06/03 07:36:26;;;;;;;7.50;4.22;;;;;;;19.63;85.47;65041.00;5051979;28;20616;-56
2023/06/03 07:39:06;;;;;;;6.97;3.90;;;;;;;19.42;86.70;65020.34;5052171;28;20221;-55
2023/06/03 07:41:43;;;;;;;10.50;7.35;;;;;;;19.42;88.17;65017.25;5051896;28;20192;-56
2023/06/03 07:44:13;;;;;;;5.00;4.03;;;;;;;19.83;87.98;65065.63;5033764;28;20642;-56
2023/06/03 07:46:41;;;;;;;10.27;7.25;;;;;;;19.92;87.63;65075.00;5051633;28;20632;-56
2023/06/03 07:49:15;;;;;;;7.72;5.07;;;;;;;19.71;86.87;65049.81;5051696;28;20656;-57
2023/06/03 07:51:45;;;;;;;11.40;6.35;;;;;;;19.58;88.55;65035.47;5051885;28;20185;-58
2023/06/03 07:54:10;;;;;;;7.57;5.18;;;;;;;20.09;86.81;65091.78;5051508;28;20225;-57
2023/06/03 07:56:36;;;;;;;8.57;6.13;;;;;;;20.19;89.08;65102.31;5051753;28;20276;-58
2023/06/03 07:59:06;;;;;;;6.95;4.78;;;;;;;20.14;85.12;65099.31;5050766;28;20206;-59
2023/06/03 08:01:33;;;;;;;14.95;10.35;;;;;;;20.17;88.86;65100.06;5051325;28;20238;-59
2023/06/03 08:04:21;;;;;;;10.18;5.65;;;;;;;20.64;86.66;65151.47;5051724;28;20209;-59
2023/06/03 08:06:49;;;;;;;7.28;5.03;;;;;;;20.81;87.58;65173.38;5051533;28;20212;-59
2023/06/03 08:09:34;;;;;;;8.35;6.25;;;;;;;20.75;87.74;65163.63;5051629;28;20209;-58
2023/06/03 08:12:05;;;;;;;9.57;7.07;;;;;;;21.00;89.43;65191.28;5050364;28;20197;-57
2023/06/03 08:14:51;;;;;;;13.05;9.38;;;;;;;20.65;89.80;65152.56;5051541;28;20707;-56
2023/06/03 08:17:29;;;;;;;9.85;6.60;;;;;;;20.87;85.92;65179.47;5051391;28;20659;-57
2023/06/03 08:19:55;;;;;;;14.70;8.90;;;;;;;20.89;86.89;65179.09;5051149;28;20216;-56
2023/06/03 08:22:43;;;;;;;18.15;12.38;;;;;;;21.04;86.58;65198.28;5051135;28;20596;-56
2023/06/03 08:25:09;;;;;;;10.18;6.47;;;;;;;21.03;87.76;65194.59;5051163;28;20292;-56
2023/06/03 08:27:35;;;;;;;12.95;6.38;;;;;;;21.35;88.22;65226.88;5051176;28;20216;-57
2023/06/03 08:30:04;;;;;;;11.45;7.22;;;;;;;21.41;88.24;65236.63;5051119;28;20645;-59
2023/06/03 08:32:33;;;;;;;13.32;9.45;;;;;;;21.39;88.96;65231.84;5050947;28;20288;-55
2023/06/03 08:34:59;;;;;;;14.07;8.10;;;;;;;21.36;88.21;65228.53;5051078;28;20213;-58
2023/06/03 08:37:25;;;;;;;12.65;7.38;;;;;;;21.61;86.65;65258.75;5051081;28;20193;-56
2023/06/03 08:39:51;;;;;;;12.45;7.82;;;;;;;21.74;83.27;65275.69;5050958;28;20658;-56
2023/06/03 08:42:23;;;;;;;8.70;6.57;;;;;;;22.07;82.09;65306.00;5051014;28;20284;-58
2023/06/03 08:44:57;;;;;;;8.70;6.45;;;;;;;22.69;79.62;65377.22;5032864;28;20741;-59
2023/06/03 08:47:48;;;;;;;8.05;6.53;;;;;;;22.60;81.04;65367.25;5050914;28;20169;-58
2023/06/03 08:50:20;;;;;;;10.50;6.15;;;;;;;22.60;77.80;65369.81;5043715;28;20236;-59
2023/06/03 08:52:47;;;;;;;10.73;6.28;;;;;;;22.73;77.01;65381.09;5051097;28;20718;-58
2023/06/03 08:55:16;;;;;;;10.02;5.93;;;;;;;22.87;75.70;65396.59;5050836;28;20209;-56
2023/06/03 08:57:57;;;;;;;3.88;2.83;;;;;;;21.96;66.55;65293.84;5050797;28;20181;-55
2023/06/03 09:00:25;;;;;;;4.78;2.60;;;;;;;22.08;66.07;65309.69;5050661;28;20197;-56
2023/06/03 09:02:52;;;;;;;2.95;2.65;;;;;;;21.95;67.37;65295.28;5050560;28;20202;-55
2023/06/03 09:05:19;;;;;;;3.30;2.70;;;;;;;22.38;68.66;65340.84;5050770;28;20216;-56
2023/06/03 09:07:48;;;;;;;3.47;2.67;;;;;;;22.04;67.02;65305.25;5050838;28;20225;-56
2023/06/03 09:10:16;;;;;;;3.28;2.97;;;;;;;22.21;68.27;65326.63;5050780;28;20208;-57
2023/06/03 09:12:44;;;;;;;3.83;2.97;;;;;;;22.38;68.02;65346.00;5050663;28;20255;-58
2023/06/03 09:15:14;;;;;;;2.97;2.67;;;;;;;22.08;68.19;65307.13;5050660;28;20240;-56
2023/06/03 09:17:42;;;;;;;3.15;2.75;;;;;;;22.03;67.26;65306.69;5050519;28;20212;-56
2023/06/03 09:20:10;;;;;;;4.07;2.90;;;;;;;22.22;67.34;65322.59;5050228;28;20217;-57
2023/06/03 09:22:37;;;;;;;2.78;2.30;;;;;;;22.26;65.88;65329.59;5032679;28;20706;-57
2023/06/03 09:25:03;;;;;;;4.72;2.65;;;;;;;22.21;67.62;65324.63;5053826;28;20305;-57
2023/06/03 09:27:28;;;;;;;4.53;2.60;;;;;;;22.26;65.98;65330.13;5053770;28;20733;-56
2023/06/03 09:29:55;;;;;;;4.13;2.65;;;;;;;22.50;65.88;65356.16;5035733;28;20220;-56
2023/06/03 09:32:21;;;;;;;2.42;2.20;;;;;;;22.91;62.99;65401.00;5053962;28;20193;-56
2023/06/03 09:34:46;;;;;;;2.60;2.38;;;;;;;23.07;61.34;65416.72;5054249;28;20248;-56
2023/06/03 09:37:12;;;;;;;3.90;2.67;;;;;;;23.75;63.07;65491.00;5053738;28;20198;-56
2023/06/03 09:39:38;;;;;;;2.35;2.10;;;;;;;23.97;61.61;65515.38;5053814;28;20669;-56
2023/06/03 09:42:04;;;;;;;4.03;2.60;;;;;;;24.37;58.47;65556.59;5053500;28;20582;-56
2023/06/03 09:44:55;;;;;;;2.30;2.10;;;;;;;23.73;58.93;65489.34;5053898;28;20259;-57
2023/06/03 09:47:21;;;;;;;2.40;2.20;;;;;;;23.36;58.30;65445.75;5053647;28;20280;-64
2023/06/03 09:50:02;;;;;;;2.55;2.17;;;;;;;22.93;58.69;65403.78;5035560;28;20738;-56
2023/06/03 09:52:50;;;;;;;2.47;2.17;;;;;;;23.15;58.94;65425.03;5053348;28;20197;-58
2023/06/03 09:55:17;;;;;;;3.03;2.70;;;;;;;23.81;61.09;65500.22;5053522;28;20205;-57
2023/06/03 09:58:01;;;;;;;2.40;2.20;;;;;;;24.20;59.41;65542.91;5053274;28;20695;-57
2023/06/03 10:00:26;;;;;;;4.55;2.47;;;;;;;23.82;58.13;65498.72;5053426;28;20209;-56
2023/06/03 10:03:06;;;;;;;2.25;2.05;;;;;;;23.97;55.99;65517.94;5053318;28;20291;-56
2023/06/03 10:05:33;;;;;;;3.33;2.33;;;;;;;24.59;54.43;65586.72;5053353;28;20198;-59
2023/06/03 10:08:01;;;;;;;3.88;2.65;;;;;;;24.02;54.80;65521.47;5053299;28;20224;-55
2023/06/03 10:10:26;;;;;;;4.00;2.85;;;;;;;23.87;55.31;65504.84;5052980;28;20687;-57
2023/06/03 10:12:51;;;;;;;4.68;2.72;;;;;;;24.49;56.16;65575.06;5053049;28;20284;-59
2023/06/03 10:15:37;;;;;;;2.40;2.15;;;;;;;25.00;54.98;65629.09;5053352;28;20577;-60
2023/06/03 10:18:04;;;;;;;4.45;2.60;;;;;;;24.73;52.80;65599.69;5053214;28;20201;-59
2023/06/03 10:20:34;;;;;;;4.25;3.00;;;;;;;24.56;52.77;65583.41;5053181;28;20259;-58
2023/06/03 10:23:04;;;;;;;3.67;2.90;;;;;;;25.23;56.67;65654.06;5053057;28;20288;-57
2023/06/03 10:25:52;;;;;;;4.05;2.40;;;;;;;24.90;54.82;65618.56;5052982;28;20232;-59
2023/06/03 10:28:19;;;;;;;2.22;2.03;;;;;;;25.33;52.24;65665.69;5052782;28;20212;-57
2023/06/03 10:30:44;;;;;;;4.35;2.88;;;;;;;26.07;54.86;65746.78;5052777;28;20225;-59
2023/06/03 10:33:10;;;;;;;4.05;3.05;;;;;;;26.31;51.84;65773.44;5053172;28;20288;-57
2023/06/03 10:35:40;;;;;;;2.97;2.42;;;;;;;26.29;50.72;65774.38;5051911;28;20205;-56
2023/06/03 10:38:07;;;;;;;6.15;2.92;;;;;;;26.44;53.54;65788.44;5034859;28;20205;-56
2023/06/03 10:40:33;;;;;;;4.43;2.75;;;;;;;26.68;51.73;65816.59;5052707;28;20202;-57
2023/06/03 10:42:59;;;;;;;2.67;2.08;;;;;;;26.12;53.83;65754.94;5034863;28;20197;-60
2023/06/03 10:45:26;;;;;;;2.85;2.63;;;;;;;26.22;50.17;65763.47;5052750;28;20640;-59
2023/06/03 10:48:13;;;;;;;2.83;2.47;;;;;;;25.43;53.05;65676.28;5034848;28;20754;-59
2023/06/03 10:50:54;;;;;;;7.68;2.88;;;;;;;25.62;52.24;65697.91;5034408;28;20311;-59
2023/06/03 10:53:38;;;;;;;5.20;3.17;;;;;;;25.10;53.19;65642.22;5052543;28;20236;-56
2023/06/03 10:56:36;;;;;;;4.97;3.78;;;;;;;24.89;53.16;65617.44;5052375;28;20248;-57
2023/06/03 10:59:03;;;;;;;5.32;3.25;;;;;;;25.44;50.71;65680.53;5048016;28;20279;-57
2023/06/03 11:01:56;;;;;;;6.13;2.92;;;;;;;25.45;52.63;65675.91;5034736;28;20213;-57
2023/06/03 11:04:21;;;;;;;4.63;3.35;;;;;;;24.90;52.16;65621.13;5052528;28;20289;-58
2023/06/03 11:06:47;;;;;;;4.07;3.42;;;;;;;24.50;50.87;65576.19;5052126;28;20213;-59
2023/06/03 11:09:18;;;;;;;3.65;2.97;;;;;;;24.59;50.20;65586.16;5052540;28;20213;-57
2023/06/03 11:11:52;;;;;;;2.85;2.50;;;;;;;25.10;50.60;65642.75;5052036;28;20622;-57
2023/06/03 11:17:12;;;;;;;2.65;2.45;;;;;;;25.62;47.39;65697.91;5052387;28;20694;-59
2023/06/03 11:19:44;;;;;;;2.70;2.50;;;;;;;25.50;49.47;65687.19;5051863;28;20213;-60
2023/06/03 11:22:11;;;;;;;3.38;2.90;;;;;;;25.18;47.82;65649.06;5052072;28;20284;-58
2023/06/03 11:24:42;;;;;;;2.92;2.63;;;;;;;24.64;50.83;65589.13;5052399;28;20684;-59
2023/06/03 11:29:48;;;;;;;3.90;2.60;;;;;;;25.52;51.80;65686.25;5052171;28;20753;-61
2023/06/03 11:32:17;;;;;;;2.72;2.47;;;;;;;25.48;47.07;65686.97;5051972;28;20211;-57
2023/06/03 11:34:44;;;;;;;5.70;2.92;;;;;;;24.83;48.01;65610.78;5051618;28;20205;-56
2023/06/03 11:37:20;;;;;;;3.47;3.08;;;;;;;24.68;49.29;65596.16;5051808;28;20280;-59
2023/06/03 11:40:06;;;;;;;4.60;3.00;;;;;;;24.91;50.25;65622.22;5051674;28;20763;-58
2023/06/03 11:42:51;;;;;;;3.22;2.80;;;;;;;24.83;51.38;65615.94;5051551;28;20231;-57